Portada
METAR-TAF:

METAR-TAF

Aeroports :

Libreville, Gabon

latitud: 00-27N, longitud: 009-25E, altitud: 12 m

Observació

L'informe es va fer fa 13 minuts, a les 22:30 UTC
Vent 10 kt del Sud/Sud-Oest
Temperatura 26°C
Humitat 79%
Pressió 1014 hPa
Visibilitat 10 km o més
Escasses núvols a una alçada de 1200 ft

METAR: FOOL 192230Z 20010KT 9999 FEW012 26/22 Q1014 NOSIG

Hora: 23:43 (22:43 UTC)

Pronòstic

L'informe es va fer fa 5 hores i 43 minuts, a les 17:00 UTC
Pronòstic vàlid del 19 a les 18 UTC al 20 a les 24 UTC
Vent 6 kt del Oest/Sud-Oest
Visibilitat 10 km o més
Núvols disperses a una alçada de 1200 ft
Cel ennuvolat a una alçada de 3300 ft

TAF: FOOL 191700Z 1918/2024 24006KT 9999 SCT012 BKN033

Observacions i pronòstics meteorològics de més de 4000 aeroports (METAR i TAF).

Les estacions disponibles són els punts grocs i vermells al mapa.

Posi el ratolí al punt desitjat per veure el nom de l'estació.

Feu clic per veure les observacions i els pronòstics meteorològics.

Per canviar el mapa: feu clic els botons verds amb una creu de color negre per apropar; al botó verd amb un guió per allunyar la imatge; o en les fletxes verdes per a mapes adjacents.


METAR-TAF: